sensor_id;sensor_type;location;lat;lon;timestamp;P1;durP1;ratioP1;P2;durP2;ratioP2
5052;SDS011;2545;50.892;5.740;2023-11-22T00:00:58;29.33;;;17.60;;
5052;SDS011;2545;50.892;5.740;2023-11-22T00:03:24;29.67;;;16.90;;
5052;SDS011;2545;50.892;5.740;2023-11-22T00:05:49;28.30;;;17.10;;
5052;SDS011;2545;50.892;5.740;2023-11-22T00:08:16;31.30;;;17.50;;
5052;SDS011;2545;50.892;5.740;2023-11-22T00:10:42;26.90;;;17.10;;
5052;SDS011;2545;50.892;5.740;2023-11-22T00:13:08;31.80;;;17.90;;
5052;SDS011;2545;50.892;5.740;2023-11-22T00:15:33;34.10;;;17.60;;
5052;SDS011;2545;50.892;5.740;2023-11-22T00:17:58;37.13;;;19.73;;
5052;SDS011;2545;50.892;5.740;2023-11-22T00:20:28;31.03;;;19.73;;
5052;SDS011;2545;50.892;5.740;2023-11-22T00:22:53;34.77;;;18.67;;
5052;SDS011;2545;50.892;5.740;2023-11-22T00:25:18;36.17;;;18.90;;
5052;SDS011;2545;50.892;5.740;2023-11-22T00:27:44;33.87;;;19.20;;
5052;SDS011;2545;50.892;5.740;2023-11-22T00:30:10;31.00;;;17.70;;
5052;SDS011;2545;50.892;5.740;2023-11-22T00:32:35;29.43;;;17.47;;
5052;SDS011;2545;50.892;5.740;2023-11-22T00:35:01;31.83;;;17.93;;
5052;SDS011;2545;50.892;5.740;2023-11-22T00:37:26;34.23;;;18.90;;
5052;SDS011;2545;50.892;5.740;2023-11-22T00:39:51;37.30;;;18.43;;
5052;SDS011;2545;50.892;5.740;2023-11-22T00:42:17;35.60;;;17.77;;
5052;SDS011;2545;50.892;5.740;2023-11-22T00:44:45;35.50;;;18.30;;
5052;SDS011;2545;50.892;5.740;2023-11-22T00:47:10;32.33;;;18.00;;
5052;SDS011;2545;50.892;5.740;2023-11-22T00:49:36;32.63;;;16.90;;
5052;SDS011;2545;50.892;5.740;2023-11-22T00:52:01;30.83;;;17.63;;
5052;SDS011;2545;50.892;5.740;2023-11-22T00:54:28;28.97;;;16.70;;
5052;SDS011;2545;50.892;5.740;2023-11-22T00:56:53;32.60;;;18.03;;
5052;SDS011;2545;50.892;5.740;2023-11-22T00:59:18;36.13;;;18.00;;
5052;SDS011;2545;50.892;5.740;2023-11-22T01:01:44;36.13;;;19.40;;
5052;SDS011;2545;50.892;5.740;2023-11-22T01:04:10;36.10;;;18.40;;
5052;SDS011;2545;50.892;5.740;2023-11-22T01:06:36;41.70;;;19.90;;
5052;SDS011;2545;50.892;5.740;2023-11-22T01:09:02;34.00;;;17.10;;
5052;SDS011;2545;50.892;5.740;2023-11-22T01:11:27;32.30;;;17.50;;
5052;SDS011;2545;50.892;5.740;2023-11-22T01:13:53;34.17;;;17.33;;
5052;SDS011;2545;50.892;5.740;2023-11-22T01:16:18;33.10;;;18.00;;
5052;SDS011;2545;50.892;5.740;2023-11-22T01:18:44;34.30;;;17.67;;
5052;SDS011;2545;50.892;5.740;2023-11-22T01:21:11;39.23;;;16.50;;
5052;SDS011;2545;50.892;5.740;2023-11-22T01:23:36;29.33;;;17.60;;
5052;SDS011;2545;50.892;5.740;2023-11-22T01:26:02;31.47;;;17.57;;
5052;SDS011;2545;50.892;5.740;2023-11-22T01:28:28;31.07;;;17.60;;
5052;SDS011;2545;50.892;5.740;2023-11-22T01:30:54;34.80;;;18.17;;
5052;SDS011;2545;50.892;5.740;2023-11-22T01:33:22;32.00;;;17.93;;
5052;SDS011;2545;50.892;5.740;2023-11-22T01:35:47;34.30;;;17.13;;
5052;SDS011;2545;50.892;5.740;2023-11-22T01:38:13;35.47;;;17.83;;
5052;SDS011;2545;50.892;5.740;2023-11-22T01:40:45;36.13;;;19.40;;
5052;SDS011;2545;50.892;5.740;2023-11-22T01:43:16;37.83;;;18.67;;
5052;SDS011;2545;50.892;5.740;2023-11-22T01:45:42;34.77;;;17.80;;
5052;SDS011;2545;50.892;5.740;2023-11-22T01:48:08;34.60;;;18.93;;
5052;SDS011;2545;50.892;5.740;2023-11-22T01:50:36;30.53;;;17.70;;
5052;SDS011;2545;50.892;5.740;2023-11-22T01:53:02;38.07;;;19.23;;
5052;SDS011;2545;50.892;5.740;2023-11-22T01:55:28;37.90;;;18.53;;
5052;SDS011;2545;50.892;5.740;2023-11-22T01:57:55;37.10;;;17.90;;
5052;SDS011;2545;50.892;5.740;2023-11-22T02:00:21;35.70;;;17.77;;
5052;SDS011;2545;50.892;5.740;2023-11-22T02:02:50;38.67;;;17.73;;
5052;SDS011;2545;50.892;5.740;2023-11-22T02:05:16;35.63;;;18.80;;
5052;SDS011;2545;50.892;5.740;2023-11-22T02:07:41;40.90;;;19.07;;
5052;SDS011;2545;50.892;5.740;2023-11-22T02:10:07;34.10;;;18.43;;
5052;SDS011;2545;50.892;5.740;2023-11-22T02:12:33;38.57;;;18.87;;
5052;SDS011;2545;50.892;5.740;2023-11-22T02:14:58;35.93;;;18.77;;
5052;SDS011;2545;50.892;5.740;2023-11-22T02:17:24;36.00;;;19.70;;
5052;SDS011;2545;50.892;5.740;2023-11-22T02:19:50;38.40;;;17.27;;
5052;SDS011;2545;50.892;5.740;2023-11-22T02:22:15;37.67;;;19.23;;
5052;SDS011;2545;50.892;5.740;2023-11-22T02:24:40;40.10;;;19.20;;
5052;SDS011;2545;50.892;5.740;2023-11-22T02:27:06;34.17;;;17.20;;
5052;SDS011;2545;50.892;5.740;2023-11-22T02:29:31;41.97;;;18.40;;
5052;SDS011;2545;50.892;5.740;2023-11-22T02:31:57;32.53;;;17.93;;
5052;SDS011;2545;50.892;5.740;2023-11-22T02:34:22;38.77;;;18.27;;
5052;SDS011;2545;50.892;5.740;2023-11-22T02:36:48;35.20;;;18.70;;
5052;SDS011;2545;50.892;5.740;2023-11-22T02:39:14;36.60;;;20.70;;
5052;SDS011;2545;50.892;5.740;2023-11-22T02:41:39;37.00;;;20.47;;
5052;SDS011;2545;50.892;5.740;2023-11-22T02:44:04;42.47;;;18.57;;
5052;SDS011;2545;50.892;5.740;2023-11-22T02:46:32;34.83;;;19.20;;
5052;SDS011;2545;50.892;5.740;2023-11-22T02:48:58;32.40;;;18.80;;
5052;SDS011;2545;50.892;5.740;2023-11-22T02:51:24;38.73;;;18.60;;
5052;SDS011;2545;50.892;5.740;2023-11-22T02:53:50;40.80;;;18.20;;
5052;SDS011;2545;50.892;5.740;2023-11-22T02:56:16;45.40;;;19.77;;
5052;SDS011;2545;50.892;5.740;2023-11-22T02:58:41;43.10;;;20.47;;
5052;SDS011;2545;50.892;5.740;2023-11-22T03:01:07;35.97;;;19.63;;
5052;SDS011;2545;50.892;5.740;2023-11-22T03:03:33;38.37;;;20.63;;
5052;SDS011;2545;50.892;5.740;2023-11-22T03:05:58;43.57;;;21.20;;
5052;SDS011;2545;50.892;5.740;2023-11-22T03:08:24;39.23;;;19.90;;
5052;SDS011;2545;50.892;5.740;2023-11-22T03:10:49;35.47;;;18.33;;
5052;SDS011;2545;50.892;5.740;2023-11-22T03:13:16;42.13;;;20.93;;
5052;SDS011;2545;50.892;5.740;2023-11-22T03:15:41;40.40;;;19.30;;
5052;SDS011;2545;50.892;5.740;2023-11-22T03:18:07;42.10;;;19.70;;
5052;SDS011;2545;50.892;5.740;2023-11-22T03:20:33;37.80;;;21.47;;
5052;SDS011;2545;50.892;5.740;2023-11-22T03:22:58;48.93;;;21.30;;
5052;SDS011;2545;50.892;5.740;2023-11-22T03:25:24;46.00;;;20.00;;
5052;SDS011;2545;50.892;5.740;2023-11-22T03:27:49;42.17;;;21.53;;
5052;SDS011;2545;50.892;5.740;2023-11-22T03:30:15;45.20;;;20.80;;
5052;SDS011;2545;50.892;5.740;2023-11-22T03:32:40;49.23;;;21.97;;
5052;SDS011;2545;50.892;5.740;2023-11-22T03:35:06;44.40;;;22.20;;
5052;SDS011;2545;50.892;5.740;2023-11-22T03:37:33;49.83;;;23.10;;
5052;SDS011;2545;50.892;5.740;2023-11-22T03:39:58;47.20;;;22.87;;
5052;SDS011;2545;50.892;5.740;2023-11-22T03:42:24;47.27;;;21.77;;
5052;SDS011;2545;50.892;5.740;2023-11-22T03:44:49;49.83;;;23.60;;
5052;SDS011;2545;50.892;5.740;2023-11-22T03:47:15;49.07;;;23.10;;
5052;SDS011;2545;50.892;5.740;2023-11-22T03:49:41;45.60;;;22.30;;
5052;SDS011;2545;50.892;5.740;2023-11-22T03:52:07;45.67;;;22.73;;
5052;SDS011;2545;50.892;5.740;2023-11-22T03:54:33;49.33;;;23.77;;
5052;SDS011;2545;50.892;5.740;2023-11-22T03:56:59;47.20;;;23.43;;
5052;SDS011;2545;50.892;5.740;2023-11-22T03:59:25;47.60;;;24.13;;
5052;SDS011;2545;50.892;5.740;2023-11-22T04:01:50;47.67;;;24.30;;
5052;SDS011;2545;50.892;5.740;2023-11-22T04:04:16;49.53;;;24.17;;
5052;SDS011;2545;50.892;5.740;2023-11-22T04:06:41;49.50;;;24.37;;
5052;SDS011;2545;50.892;5.740;2023-11-22T04:09:07;50.53;;;25.80;;
5052;SDS011;2545;50.892;5.740;2023-11-22T04:11:33;48.40;;;22.80;;
5052;SDS011;2545;50.892;5.740;2023-11-22T04:13:59;50.10;;;24.30;;
5052;SDS011;2545;50.892;5.740;2023-11-22T04:16:25;54.70;;;26.23;;
5052;SDS011;2545;50.892;5.740;2023-11-22T04:18:50;52.53;;;24.57;;
5052;SDS011;2545;50.892;5.740;2023-11-22T04:21:15;50.70;;;25.83;;
5052;SDS011;2545;50.892;5.740;2023-11-22T04:23:41;57.00;;;25.03;;
5052;SDS011;2545;50.892;5.740;2023-11-22T04:26:07;55.23;;;25.23;;
5052;SDS011;2545;50.892;5.740;2023-11-22T04:28:33;62.70;;;27.37;;
5052;SDS011;2545;50.892;5.740;2023-11-22T04:30:58;55.63;;;26.03;;
5052;SDS011;2545;50.892;5.740;2023-11-22T04:33:24;50.07;;;24.80;;
5052;SDS011;2545;50.892;5.740;2023-11-22T04:35:50;52.80;;;24.43;;
5052;SDS011;2545;50.892;5.740;2023-11-22T04:38:16;57.40;;;26.27;;
5052;SDS011;2545;50.892;5.740;2023-11-22T04:40:42;60.23;;;28.30;;
5052;SDS011;2545;50.892;5.740;2023-11-22T04:43:08;63.83;;;27.87;;
5052;SDS011;2545;50.892;5.740;2023-11-22T04:45:33;61.70;;;28.27;;
5052;SDS011;2545;50.892;5.740;2023-11-22T04:47:59;65.93;;;27.83;;
5052;SDS011;2545;50.892;5.740;2023-11-22T04:50:25;62.10;;;28.07;;
5052;SDS011;2545;50.892;5.740;2023-11-22T04:52:50;62.87;;;29.23;;
5052;SDS011;2545;50.892;5.740;2023-11-22T04:55:16;62.60;;;28.73;;
5052;SDS011;2545;50.892;5.740;2023-11-22T04:57:41;66.33;;;27.67;;
5052;SDS011;2545;50.892;5.740;2023-11-22T05:00:07;55.73;;;25.23;;
5052;SDS011;2545;50.892;5.740;2023-11-22T05:02:33;55.20;;;26.00;;
5052;SDS011;2545;50.892;5.740;2023-11-22T05:04:58;49.77;;;25.03;;
5052;SDS011;2545;50.892;5.740;2023-11-22T05:07:23;55.80;;;26.43;;
5052;SDS011;2545;50.892;5.740;2023-11-22T05:09:48;58.97;;;27.03;;
5052;SDS011;2545;50.892;5.740;2023-11-22T05:12:14;59.70;;;27.43;;
5052;SDS011;2545;50.892;5.740;2023-11-22T05:14:39;61.70;;;26.00;;
5052;SDS011;2545;50.892;5.740;2023-11-22T05:17:05;60.80;;;25.20;;
5052;SDS011;2545;50.892;5.740;2023-11-22T05:19:31;44.40;;;23.77;;
5052;SDS011;2545;50.892;5.740;2023-11-22T05:21:56;52.17;;;24.27;;
5052;SDS011;2545;50.892;5.740;2023-11-22T05:24:22;50.60;;;24.20;;
5052;SDS011;2545;50.892;5.740;2023-11-22T05:26:48;55.40;;;23.80;;
5052;SDS011;2545;50.892;5.740;2023-11-22T05:29:13;57.43;;;24.00;;
5052;SDS011;2545;50.892;5.740;2023-11-22T05:31:39;56.30;;;23.60;;
5052;SDS011;2545;50.892;5.740;2023-11-22T05:34:04;54.17;;;25.93;;
5052;SDS011;2545;50.892;5.740;2023-11-22T05:36:29;62.03;;;26.23;;
5052;SDS011;2545;50.892;5.740;2023-11-22T05:38:55;54.90;;;25.23;;
5052;SDS011;2545;50.892;5.740;2023-11-22T05:41:23;66.60;;;26.23;;
5052;SDS011;2545;50.892;5.740;2023-11-22T05:43:50;46.97;;;24.70;;
5052;SDS011;2545;50.892;5.740;2023-11-22T05:46:17;67.13;;;27.33;;
5052;SDS011;2545;50.892;5.740;2023-11-22T05:48:46;63.23;;;27.30;;
5052;SDS011;2545;50.892;5.740;2023-11-22T05:51:12;58.13;;;26.70;;
5052;SDS011;2545;50.892;5.740;2023-11-22T05:53:37;55.00;;;26.70;;
5052;SDS011;2545;50.892;5.740;2023-11-22T05:56:02;55.23;;;26.77;;
5052;SDS011;2545;50.892;5.740;2023-11-22T05:58:28;53.00;;;24.40;;
5052;SDS011;2545;50.892;5.740;2023-11-22T06:00:54;50.03;;;24.20;;
5052;SDS011;2545;50.892;5.740;2023-11-22T06:03:19;44.77;;;20.70;;
5052;SDS011;2545;50.892;5.740;2023-11-22T06:05:44;42.50;;;20.20;;
5052;SDS011;2545;50.892;5.740;2023-11-22T06:08:10;43.23;;;21.10;;
5052;SDS011;2545;50.892;5.740;2023-11-22T06:10:35;44.60;;;20.30;;
5052;SDS011;2545;50.892;5.740;2023-11-22T06:13:00;43.93;;;19.87;;
5052;SDS011;2545;50.892;5.740;2023-11-22T06:15:26;41.90;;;20.67;;
5052;SDS011;2545;50.892;5.740;2023-11-22T06:17:51;39.80;;;20.03;;
5052;SDS011;2545;50.892;5.740;2023-11-22T06:20:17;40.30;;;21.00;;
5052;SDS011;2545;50.892;5.740;2023-11-22T06:22:42;44.93;;;21.47;;
5052;SDS011;2545;50.892;5.740;2023-11-22T06:25:11;41.87;;;21.40;;
5052;SDS011;2545;50.892;5.740;2023-11-22T06:27:37;35.57;;;18.33;;
5052;SDS011;2545;50.892;5.740;2023-11-22T06:30:03;42.20;;;20.70;;
5052;SDS011;2545;50.892;5.740;2023-11-22T06:32:29;38.43;;;20.70;;
5052;SDS011;2545;50.892;5.740;2023-11-22T06:34:54;42.37;;;21.77;;
5052;SDS011;2545;50.892;5.740;2023-11-22T06:37:20;51.83;;;22.37;;
5052;SDS011;2545;50.892;5.740;2023-11-22T06:39:46;56.37;;;25.70;;
5052;SDS011;2545;50.892;5.740;2023-11-22T06:42:11;50.80;;;24.03;;
5052;SDS011;2545;50.892;5.740;2023-11-22T06:44:38;50.90;;;23.73;;
5052;SDS011;2545;50.892;5.740;2023-11-22T06:47:04;52.63;;;22.97;;
5052;SDS011;2545;50.892;5.740;2023-11-22T06:49:30;57.00;;;24.50;;
5052;SDS011;2545;50.892;5.740;2023-11-22T06:51:55;61.97;;;25.90;;
5052;SDS011;2545;50.892;5.740;2023-11-22T06:54:21;44.57;;;22.47;;
5052;SDS011;2545;50.892;5.740;2023-11-22T06:56:46;49.07;;;24.63;;
5052;SDS011;2545;50.892;5.740;2023-11-22T06:59:12;43.93;;;23.43;;
5052;SDS011;2545;50.892;5.740;2023-11-22T07:01:38;49.80;;;24.20;;
5052;SDS011;2545;50.892;5.740;2023-11-22T07:04:04;49.03;;;24.97;;
5052;SDS011;2545;50.892;5.740;2023-11-22T07:06:31;44.50;;;23.97;;
5052;SDS011;2545;50.892;5.740;2023-11-22T07:08:57;54.53;;;24.17;;
5052;SDS011;2545;50.892;5.740;2023-11-22T07:11:23;50.00;;;25.20;;
5052;SDS011;2545;50.892;5.740;2023-11-22T07:13:49;51.13;;;24.33;;
5052;SDS011;2545;50.892;5.740;2023-11-22T07:16:16;56.23;;;25.57;;
5052;SDS011;2545;50.892;5.740;2023-11-22T07:18:43;55.10;;;24.47;;
5052;SDS011;2545;50.892;5.740;2023-11-22T07:21:09;53.77;;;25.60;;
5052;SDS011;2545;50.892;5.740;2023-11-22T07:23:34;51.77;;;25.43;;
5052;SDS011;2545;50.892;5.740;2023-11-22T07:26:00;51.03;;;25.20;;
5052;SDS011;2545;50.892;5.740;2023-11-22T07:28:25;58.67;;;26.97;;
5052;SDS011;2545;50.892;5.740;2023-11-22T07:30:51;53.17;;;26.07;;
5052;SDS011;2545;50.892;5.740;2023-11-22T07:33:16;63.43;;;26.73;;
5052;SDS011;2545;50.892;5.740;2023-11-22T07:35:42;56.57;;;26.73;;
5052;SDS011;2545;50.892;5.740;2023-11-22T07:38:08;69.23;;;26.93;;
5052;SDS011;2545;50.892;5.740;2023-11-22T07:40:36;64.53;;;26.77;;
5052;SDS011;2545;50.892;5.740;2023-11-22T07:43:02;54.20;;;23.93;;
5052;SDS011;2545;50.892;5.740;2023-11-22T07:45:29;59.97;;;26.90;;
5052;SDS011;2545;50.892;5.740;2023-11-22T07:47:56;51.50;;;25.83;;
5052;SDS011;2545;50.892;5.740;2023-11-22T07:50:24;57.23;;;25.33;;
5052;SDS011;2545;50.892;5.740;2023-11-22T07:52:50;50.67;;;23.60;;
5052;SDS011;2545;50.892;5.740;2023-11-22T07:55:15;50.47;;;25.00;;
5052;SDS011;2545;50.892;5.740;2023-11-22T07:57:43;55.50;;;25.50;;
5052;SDS011;2545;50.892;5.740;2023-11-22T08:00:09;45.23;;;24.63;;
5052;SDS011;2545;50.892;5.740;2023-11-22T08:02:36;46.40;;;24.67;;
5052;SDS011;2545;50.892;5.740;2023-11-22T08:05:03;57.30;;;25.27;;
5052;SDS011;2545;50.892;5.740;2023-11-22T08:07:38;51.47;;;25.40;;
5052;SDS011;2545;50.892;5.740;2023-11-22T08:10:09;50.70;;;24.37;;
5052;SDS011;2545;50.892;5.740;2023-11-22T08:12:43;46.70;;;22.90;;
5052;SDS011;2545;50.892;5.740;2023-11-22T08:15:14;52.70;;;24.43;;
5052;SDS011;2545;50.892;5.740;2023-11-22T08:17:41;42.43;;;21.20;;
5052;SDS011;2545;50.892;5.740;2023-11-22T08:20:08;39.27;;;20.00;;
5052;SDS011;2545;50.892;5.740;2023-11-22T08:22:38;41.87;;;20.30;;
5052;SDS011;2545;50.892;5.740;2023-11-22T08:25:05;39.67;;;19.90;;
5052;SDS011;2545;50.892;5.740;2023-11-22T08:27:33;43.40;;;22.30;;
5052;SDS011;2545;50.892;5.740;2023-11-22T08:29:59;41.90;;;21.87;;
5052;SDS011;2545;50.892;5.740;2023-11-22T08:32:29;37.23;;;19.77;;
5052;SDS011;2545;50.892;5.740;2023-11-22T08:34:56;35.27;;;19.33;;
5052;SDS011;2545;50.892;5.740;2023-11-22T08:37:21;51.83;;;21.77;;
5052;SDS011;2545;50.892;5.740;2023-11-22T08:39:47;35.03;;;18.73;;
5052;SDS011;2545;50.892;5.740;2023-11-22T08:42:13;39.47;;;20.87;;
5052;SDS011;2545;50.892;5.740;2023-11-22T08:44:39;35.80;;;20.47;;
5052;SDS011;2545;50.892;5.740;2023-11-22T08:47:04;38.70;;;20.30;;
5052;SDS011;2545;50.892;5.740;2023-11-22T08:49:30;43.10;;;21.90;;
5052;SDS011;2545;50.892;5.740;2023-11-22T08:51:58;40.03;;;19.90;;
5052;SDS011;2545;50.892;5.740;2023-11-22T08:54:28;47.40;;;22.67;;
5052;SDS011;2545;50.892;5.740;2023-11-22T08:56:54;36.13;;;19.57;;
5052;SDS011;2545;50.892;5.740;2023-11-22T08:59:21;40.57;;;20.73;;
5052;SDS011;2545;50.892;5.740;2023-11-22T09:01:46;36.83;;;20.47;;
5052;SDS011;2545;50.892;5.740;2023-11-22T09:04:12;35.07;;;19.17;;
5052;SDS011;2545;50.892;5.740;2023-11-22T09:06:38;51.90;;;22.23;;
5052;SDS011;2545;50.892;5.740;2023-11-22T09:09:03;42.20;;;21.27;;
5052;SDS011;2545;50.892;5.740;2023-11-22T09:11:29;42.40;;;22.13;;
5052;SDS011;2545;50.892;5.740;2023-11-22T09:13:54;43.73;;;20.57;;
5052;SDS011;2545;50.892;5.740;2023-11-22T09:16:21;40.57;;;19.47;;
5052;SDS011;2545;50.892;5.740;2023-11-22T09:18:49;32.30;;;19.30;;
5052;SDS011;2545;50.892;5.740;2023-11-22T09:21:15;40.53;;;20.80;;
5052;SDS011;2545;50.892;5.740;2023-11-22T09:23:42;39.87;;;19.47;;
5052;SDS011;2545;50.892;5.740;2023-11-22T09:26:08;35.70;;;18.97;;
5052;SDS011;2545;50.892;5.740;2023-11-22T09:28:33;44.00;;;20.33;;
5052;SDS011;2545;50.892;5.740;2023-11-22T09:30:59;40.77;;;19.97;;
5052;SDS011;2545;50.892;5.740;2023-11-22T09:33:31;38.63;;;19.33;;
5052;SDS011;2545;50.892;5.740;2023-11-22T09:35:57;35.40;;;19.47;;
5052;SDS011;2545;50.892;5.740;2023-11-22T09:38:25;38.30;;;19.37;;
5052;SDS011;2545;50.892;5.740;2023-11-22T09:40:50;32.97;;;19.00;;
5052;SDS011;2545;50.892;5.740;2023-11-22T09:43:18;33.17;;;17.40;;
5052;SDS011;2545;50.892;5.740;2023-11-22T09:45:45;41.17;;;17.97;;
5052;SDS011;2545;50.892;5.740;2023-11-22T09:48:14;31.60;;;17.50;;
5052;SDS011;2545;50.892;5.740;2023-11-22T09:53:36;25.47;;;14.57;;
5052;SDS011;2545;50.892;5.740;2023-11-22T09:56:15;34.03;;;17.40;;
5052;SDS011;2545;50.892;5.740;2023-11-22T09:58:43;31.37;;;17.37;;
5052;SDS011;2545;50.892;5.740;2023-11-22T10:01:12;34.63;;;17.63;;
5052;SDS011;2545;50.892;5.740;2023-11-22T10:03:39;29.97;;;17.30;;
5052;SDS011;2545;50.892;5.740;2023-11-22T10:06:05;31.70;;;17.60;;
5052;SDS011;2545;50.892;5.740;2023-11-22T10:08:31;31.73;;;17.13;;
5052;SDS011;2545;50.892;5.740;2023-11-22T10:10:58;31.90;;;16.87;;
5052;SDS011;2545;50.892;5.740;2023-11-22T10:13:24;28.73;;;17.00;;
5052;SDS011;2545;50.892;5.740;2023-11-22T10:15:50;31.50;;;17.63;;
5052;SDS011;2545;50.892;5.740;2023-11-22T10:18:17;28.47;;;17.07;;
5052;SDS011;2545;50.892;5.740;2023-11-22T10:20:43;32.70;;;17.23;;
5052;SDS011;2545;50.892;5.740;2023-11-22T10:23:13;30.80;;;16.93;;
5052;SDS011;2545;50.892;5.740;2023-11-22T10:25:49;30.17;;;16.60;;
5052;SDS011;2545;50.892;5.740;2023-11-22T10:28:19;28.80;;;16.60;;
5052;SDS011;2545;50.892;5.740;2023-11-22T10:30:46;32.37;;;16.87;;
5052;SDS011;2545;50.892;5.740;2023-11-22T10:33:13;33.20;;;17.83;;
5052;SDS011;2545;50.892;5.740;2023-11-22T10:35:45;31.50;;;17.20;;
5052;SDS011;2545;50.892;5.740;2023-11-22T10:38:16;32.03;;;17.03;;
5052;SDS011;2545;50.892;5.740;2023-11-22T10:40:42;28.53;;;16.00;;
5052;SDS011;2545;50.892;5.740;2023-11-22T10:43:10;29.80;;;17.07;;
5052;SDS011;2545;50.892;5.740;2023-11-22T10:45:36;28.90;;;17.03;;
5052;SDS011;2545;50.892;5.740;2023-11-22T10:48:02;30.47;;;16.57;;
5052;SDS011;2545;50.892;5.740;2023-11-22T10:50:28;27.23;;;16.43;;
5052;SDS011;2545;50.892;5.740;2023-11-22T10:52:54;30.40;;;16.43;;
5052;SDS011;2545;50.892;5.740;2023-11-22T10:55:24;27.10;;;15.63;;
5052;SDS011;2545;50.892;5.740;2023-11-22T10:57:51;27.57;;;14.90;;
5052;SDS011;2545;50.892;5.740;2023-11-22T11:00:21;21.83;;;14.17;;
5052;SDS011;2545;50.892;5.740;2023-11-22T11:02:50;27.27;;;15.70;;
5052;SDS011;2545;50.892;5.740;2023-11-22T11:05:21;27.17;;;15.57;;
5052;SDS011;2545;50.892;5.740;2023-11-22T11:08:06;30.20;;;17.33;;
5052;SDS011;2545;50.892;5.740;2023-11-22T11:10:38;25.03;;;15.83;;
5052;SDS011;2545;50.892;5.740;2023-11-22T11:13:05;28.40;;;16.90;;
5052;SDS011;2545;50.892;5.740;2023-11-22T11:15:30;27.30;;;14.67;;
5052;SDS011;2545;50.892;5.740;2023-11-22T11:17:56;26.80;;;15.70;;
5052;SDS011;2545;50.892;5.740;2023-11-22T11:20:22;28.13;;;15.67;;
5052;SDS011;2545;50.892;5.740;2023-11-22T11:22:48;32.80;;;15.70;;
5052;SDS011;2545;50.892;5.740;2023-11-22T11:25:15;26.77;;;15.60;;
5052;SDS011;2545;50.892;5.740;2023-11-22T11:27:43;29.03;;;16.60;;
5052;SDS011;2545;50.892;5.740;2023-11-22T11:32:52;26.30;;;15.30;;
5052;SDS011;2545;50.892;5.740;2023-11-22T11:35:18;21.33;;;12.97;;
5052;SDS011;2545;50.892;5.740;2023-11-22T11:37:46;24.67;;;14.70;;
5052;SDS011;2545;50.892;5.740;2023-11-22T11:40:24;23.67;;;13.73;;
5052;SDS011;2545;50.892;5.740;2023-11-22T11:42:51;27.20;;;14.80;;
5052;SDS011;2545;50.892;5.740;2023-11-22T11:45:16;23.67;;;13.63;;
5052;SDS011;2545;50.892;5.740;2023-11-22T11:47:41;24.20;;;14.70;;
5052;SDS011;2545;50.892;5.740;2023-11-22T11:50:08;27.53;;;14.30;;
5052;SDS011;2545;50.892;5.740;2023-11-22T11:52:33;24.37;;;14.33;;
5052;SDS011;2545;50.892;5.740;2023-11-22T11:55:00;26.47;;;14.90;;
5052;SDS011;2545;50.892;5.740;2023-11-22T11:57:25;29.20;;;16.70;;
5052;SDS011;2545;50.892;5.740;2023-11-22T11:59:51;30.57;;;17.27;;
5052;SDS011;2545;50.892;5.740;2023-11-22T12:02:17;38.60;;;19.23;;
5052;SDS011;2545;50.892;5.740;2023-11-22T12:04:44;35.13;;;17.30;;
5052;SDS011;2545;50.892;5.740;2023-11-22T12:07:10;34.53;;;16.77;;
5052;SDS011;2545;50.892;5.740;2023-11-22T12:09:37;30.50;;;17.47;;
5052;SDS011;2545;50.892;5.740;2023-11-22T12:12:02;31.50;;;16.63;;
5052;SDS011;2545;50.892;5.740;2023-11-22T12:14:28;30.47;;;16.60;;
5052;SDS011;2545;50.892;5.740;2023-11-22T12:16:53;38.30;;;20.40;;
5052;SDS011;2545;50.892;5.740;2023-11-22T12:19:27;32.53;;;17.80;;
5052;SDS011;2545;50.892;5.740;2023-11-22T12:21:55;34.97;;;18.70;;
5052;SDS011;2545;50.892;5.740;2023-11-22T12:24:21;32.70;;;17.93;;
5052;SDS011;2545;50.892;5.740;2023-11-22T12:26:47;35.87;;;18.03;;
5052;SDS011;2545;50.892;5.740;2023-11-22T12:29:15;36.37;;;18.33;;
5052;SDS011;2545;50.892;5.740;2023-11-22T12:31:47;35.83;;;20.27;;
5052;SDS011;2545;50.892;5.740;2023-11-22T12:34:16;34.90;;;20.07;;
5052;SDS011;2545;50.892;5.740;2023-11-22T12:36:42;34.97;;;19.60;;
5052;SDS011;2545;50.892;5.740;2023-11-22T12:39:08;29.37;;;17.20;;
5052;SDS011;2545;50.892;5.740;2023-11-22T12:41:42;37.33;;;20.30;;
5052;SDS011;2545;50.892;5.740;2023-11-22T12:44:15;39.60;;;20.93;;
5052;SDS011;2545;50.892;5.740;2023-11-22T12:46:44;37.93;;;19.50;;
5052;SDS011;2545;50.892;5.740;2023-11-22T12:49:21;28.97;;;16.43;;
5052;SDS011;2545;50.892;5.740;2023-11-22T12:51:54;27.03;;;15.80;;
5052;SDS011;2545;50.892;5.740;2023-11-22T12:54:21;37.07;;;18.07;;
5052;SDS011;2545;50.892;5.740;2023-11-22T12:56:51;29.40;;;16.60;;
5052;SDS011;2545;50.892;5.740;2023-11-22T12:59:23;34.27;;;17.87;;
5052;SDS011;2545;50.892;5.740;2023-11-22T13:01:49;33.03;;;17.33;;
5052;SDS011;2545;50.892;5.740;2023-11-22T13:04:15;28.37;;;15.50;;
5052;SDS011;2545;50.892;5.740;2023-11-22T13:06:40;24.13;;;13.00;;
5052;SDS011;2545;50.892;5.740;2023-11-22T13:09:06;29.53;;;13.10;;
5052;SDS011;2545;50.892;5.740;2023-11-22T13:11:32;27.00;;;15.70;;
5052;SDS011;2545;50.892;5.740;2023-11-22T13:13:58;23.10;;;14.07;;
5052;SDS011;2545;50.892;5.740;2023-11-22T13:16:23;22.80;;;13.00;;
5052;SDS011;2545;50.892;5.740;2023-11-22T13:18:48;22.10;;;13.50;;
5052;SDS011;2545;50.892;5.740;2023-11-22T13:21:14;26.30;;;13.80;;
5052;SDS011;2545;50.892;5.740;2023-11-22T13:23:39;22.40;;;12.83;;
5052;SDS011;2545;50.892;5.740;2023-11-22T13:26:05;22.43;;;13.63;;
5052;SDS011;2545;50.892;5.740;2023-11-22T13:28:30;21.80;;;12.03;;
5052;SDS011;2545;50.892;5.740;2023-11-22T13:30:56;22.27;;;13.07;;
5052;SDS011;2545;50.892;5.740;2023-11-22T13:33:21;21.80;;;12.43;;
5052;SDS011;2545;50.892;5.740;2023-11-22T13:35:47;19.63;;;11.17;;
5052;SDS011;2545;50.892;5.740;2023-11-22T13:38:12;21.80;;;11.47;;
5052;SDS011;2545;50.892;5.740;2023-11-22T13:40:38;22.37;;;12.57;;
5052;SDS011;2545;50.892;5.740;2023-11-22T13:43:05;25.27;;;12.80;;
5052;SDS011;2545;50.892;5.740;2023-11-22T13:45:31;23.57;;;13.27;;
5052;SDS011;2545;50.892;5.740;2023-11-22T13:47:58;26.17;;;15.13;;
5052;SDS011;2545;50.892;5.740;2023-11-22T13:50:28;36.33;;;15.17;;
5052;SDS011;2545;50.892;5.740;2023-11-22T13:52:54;28.10;;;16.97;;
5052;SDS011;2545;50.892;5.740;2023-11-22T13:55:21;32.90;;;17.00;;
5052;SDS011;2545;50.892;5.740;2023-11-22T13:57:51;33.67;;;17.87;;
5052;SDS011;2545;50.892;5.740;2023-11-22T14:00:17;33.03;;;17.07;;
5052;SDS011;2545;50.892;5.740;2023-11-22T14:02:51;36.03;;;17.17;;
5052;SDS011;2545;50.892;5.740;2023-11-22T14:07:47;29.33;;;16.10;;
5052;SDS011;2545;50.892;5.740;2023-11-22T14:10:13;34.17;;;18.30;;
5052;SDS011;2545;50.892;5.740;2023-11-22T14:12:41;34.13;;;17.87;;
5052;SDS011;2545;50.892;5.740;2023-11-22T14:15:07;30.00;;;17.57;;
5052;SDS011;2545;50.892;5.740;2023-11-22T14:17:34;34.60;;;18.40;;
5052;SDS011;2545;50.892;5.740;2023-11-22T14:20:00;40.27;;;19.20;;
5052;SDS011;2545;50.892;5.740;2023-11-22T14:22:25;31.90;;;17.97;;
5052;SDS011;2545;50.892;5.740;2023-11-22T14:24:52;29.63;;;17.00;;
5052;SDS011;2545;50.892;5.740;2023-11-22T14:27:17;35.83;;;17.50;;
5052;SDS011;2545;50.892;5.740;2023-11-22T14:29:44;35.57;;;16.97;;
5052;SDS011;2545;50.892;5.740;2023-11-22T14:32:12;35.60;;;17.00;;
5052;SDS011;2545;50.892;5.740;2023-11-22T14:34:38;29.30;;;16.50;;
5052;SDS011;2545;50.892;5.740;2023-11-22T14:37:03;32.37;;;16.10;;
5052;SDS011;2545;50.892;5.740;2023-11-22T14:39:30;31.67;;;17.90;;
5052;SDS011;2545;50.892;5.740;2023-11-22T14:41:55;34.77;;;16.40;;
5052;SDS011;2545;50.892;5.740;2023-11-22T14:44:21;30.87;;;16.90;;
5052;SDS011;2545;50.892;5.740;2023-11-22T14:46:46;32.77;;;17.50;;
5052;SDS011;2545;50.892;5.740;2023-11-22T14:49:13;37.17;;;17.13;;
5052;SDS011;2545;50.892;5.740;2023-11-22T14:51:39;31.07;;;16.33;;